sensor_id;sensor_type;location;lat;lon;timestamp;pressure;altitude;pressure_sealevel;temperature;humidity
42125;BME280;27787;44.594;11.046;2022-10-22T00:00:28;101156.31;;;17.53;97.91
42125;BME280;27787;44.594;11.046;2022-10-22T00:03:12;101145.63;;;17.54;97.40
42125;BME280;27787;44.594;11.046;2022-10-22T00:05:56;101134.00;;;17.57;97.28
42125;BME280;27787;44.594;11.046;2022-10-22T00:08:40;101141.13;;;17.59;97.15
42125;BME280;27787;44.594;11.046;2022-10-22T00:11:24;101132.16;;;17.62;96.77
42125;BME280;27787;44.594;11.046;2022-10-22T00:14:08;101121.44;;;17.65;96.62
42125;BME280;27787;44.594;11.046;2022-10-22T00:16:52;101086.69;;;17.66;96.19
42125;BME280;27787;44.594;11.046;2022-10-22T00:19:37;101070.66;;;17.69;96.15
42125;BME280;27787;44.594;11.046;2022-10-22T00:22:21;101067.06;;;17.71;95.98
42125;BME280;27787;44.594;11.046;2022-10-22T00:25:04;101075.06;;;17.74;95.85
42125;BME280;27787;44.594;11.046;2022-10-22T00:27:48;101103.50;;;17.76;95.36
42125;BME280;27787;44.594;11.046;2022-10-22T00:30:32;101131.91;;;17.80;95.08
42125;BME280;27787;44.594;11.046;2022-10-22T00:33:16;101130.94;;;17.83;94.75
42125;BME280;27787;44.594;11.046;2022-10-22T00:36:00;101118.47;;;17.86;94.43
42125;BME280;27787;44.594;11.046;2022-10-22T00:38:44;101111.28;;;17.88;94.56
42125;BME280;27787;44.594;11.046;2022-10-22T00:41:28;101111.22;;;17.91;94.32
42125;BME280;27787;44.594;11.046;2022-10-22T00:47:15;101100.47;;;17.96;93.74
42125;BME280;27787;44.594;11.046;2022-10-22T00:50:01;101087.06;;;17.99;93.58
42125;BME280;27787;44.594;11.046;2022-10-22T00:52:46;101092.34;;;18.02;93.19
42125;BME280;27787;44.594;11.046;2022-10-22T00:55:30;101091.44;;;18.03;93.38
42125;BME280;27787;44.594;11.046;2022-10-22T00:58:15;101090.50;;;18.06;93.05
42125;BME280;27787;44.594;11.046;2022-10-22T01:01:00;101086.91;;;18.07;92.99
42125;BME280;27787;44.594;11.046;2022-10-22T01:03:45;101088.63;;;18.09;93.18
42125;BME280;27787;44.594;11.046;2022-10-22T01:06:32;101081.50;;;18.10;93.46
42125;BME280;27787;44.594;11.046;2022-10-22T01:12:25;101090.44;;;18.10;93.56
42125;BME280;27787;44.594;11.046;2022-10-22T01:18:01;101087.72;;;18.12;93.75
42125;BME280;27787;44.594;11.046;2022-10-22T01:20:55;101069.03;;;18.12;93.59
42125;BME280;27787;44.594;11.046;2022-10-22T01:26:42;101040.50;;;18.12;93.95
42125;BME280;27787;44.594;11.046;2022-10-22T01:29:50;101061.88;;;18.12;94.24
42125;BME280;27787;44.594;11.046;2022-10-22T01:32:45;101020.97;;;18.10;94.53
42125;BME280;27787;44.594;11.046;2022-10-22T01:35:33;100999.59;;;18.10;94.52
42125;BME280;27787;44.594;11.046;2022-10-22T01:38:18;100994.25;;;18.10;94.57
42125;BME280;27787;44.594;11.046;2022-10-22T01:41:03;100980.00;;;18.08;94.89
42125;BME280;27787;44.594;11.046;2022-10-22T01:43:47;100988.94;;;18.07;94.94
42125;BME280;27787;44.594;11.046;2022-10-22T01:46:31;100996.06;;;18.07;95.16
42125;BME280;27787;44.594;11.046;2022-10-22T01:49:16;100997.88;;;18.06;94.97
42125;BME280;27787;44.594;11.046;2022-10-22T01:55:08;101004.16;;;18.04;95.34
42125;BME280;27787;44.594;11.046;2022-10-22T01:58:18;101000.56;;;18.05;94.96
42125;BME280;27787;44.594;11.046;2022-10-22T02:01:02;100991.66;;;18.06;94.51
42125;BME280;27787;44.594;11.046;2022-10-22T02:03:59;101002.34;;;18.06;94.42
42125;BME280;27787;44.594;11.046;2022-10-22T02:06:44;100981.84;;;18.06;94.19
42125;BME280;27787;44.594;11.046;2022-10-22T02:09:30;100976.47;;;18.08;93.85
42125;BME280;27787;44.594;11.046;2022-10-22T02:12:15;100985.34;;;18.08;93.51
42125;BME280;27787;44.594;11.046;2022-10-22T02:15:00;100972.88;;;18.09;93.43
42125;BME280;27787;44.594;11.046;2022-10-22T02:17:46;100965.75;;;18.09;93.38
42125;BME280;27787;44.594;11.046;2022-10-22T02:20:31;100976.44;;;18.11;93.38
42125;BME280;27787;44.594;11.046;2022-10-22T02:23:16;100968.41;;;18.11;93.62
42125;BME280;27787;44.594;11.046;2022-10-22T02:26:34;100957.72;;;18.11;93.67
42125;BME280;27787;44.594;11.046;2022-10-22T02:29:15;100971.97;;;18.10;93.94
42125;BME280;27787;44.594;11.046;2022-10-22T02:32:03;100976.44;;;18.11;93.97
42125;BME280;27787;44.594;11.046;2022-10-22T02:34:48;100961.28;;;18.10;94.12
42125;BME280;27787;44.594;11.046;2022-10-22T02:37:33;100970.22;;;18.09;94.01
42125;BME280;27787;44.594;11.046;2022-10-22T02:40:18;100985.34;;;18.08;93.92
42125;BME280;27787;44.594;11.046;2022-10-22T02:43:03;100991.56;;;18.09;93.77
42125;BME280;27787;44.594;11.046;2022-10-22T02:45:47;100985.31;;;18.10;93.10
42125;BME280;27787;44.594;11.046;2022-10-22T02:48:31;100988.88;;;18.12;93.14
42125;BME280;27787;44.594;11.046;2022-10-22T02:51:15;100993.31;;;18.13;92.87
42125;BME280;27787;44.594;11.046;2022-10-22T02:53:59;100991.50;;;18.13;92.70
42125;BME280;27787;44.594;11.046;2022-10-22T02:56:43;100990.53;;;18.17;91.83
42125;BME280;27787;44.594;11.046;2022-10-22T02:59:27;100989.53;;;18.23;91.47
42125;BME280;27787;44.594;11.046;2022-10-22T03:02:11;100988.56;;;18.27;90.85
42125;BME280;27787;44.594;11.046;2022-10-22T03:04:55;100994.69;;;18.31;90.48
42125;BME280;27787;44.594;11.046;2022-10-22T03:07:39;100974.09;;;18.36;90.02
42125;BME280;27787;44.594;11.046;2022-10-22T03:10:22;100934.81;;;18.41;89.57
42125;BME280;27787;44.594;11.046;2022-10-22T03:13:06;100956.03;;;18.47;89.38
42125;BME280;27787;44.594;11.046;2022-10-22T03:15:50;100974.66;;;18.51;88.92
42125;BME280;27787;44.594;11.046;2022-10-22T03:18:34;100973.69;;;18.55;89.16
42125;BME280;27787;44.594;11.046;2022-10-22T03:24:04;100942.34;;;18.62;88.52
42125;BME280;27787;44.594;11.046;2022-10-22T03:26:50;100929.88;;;18.63;88.40
42125;BME280;27787;44.594;11.046;2022-10-22T03:29:36;100931.56;;;18.67;88.25
42125;BME280;27787;44.594;11.046;2022-10-22T03:32:21;100945.75;;;18.70;88.08
42125;BME280;27787;44.594;11.046;2022-10-22T03:35:05;100936.72;;;18.74;88.05
42125;BME280;27787;44.594;11.046;2022-10-22T03:37:50;100933.09;;;18.78;87.96
42125;BME280;27787;44.594;11.046;2022-10-22T03:40:34;100927.63;;;18.83;87.54
42125;BME280;27787;44.594;11.046;2022-10-22T03:43:18;100935.50;;;18.88;87.45
42125;BME280;27787;44.594;11.046;2022-10-22T03:46:02;100954.19;;;18.91;87.34
42125;BME280;27787;44.594;11.046;2022-10-22T03:48:46;100953.31;;;18.90;87.64
42125;BME280;27787;44.594;11.046;2022-10-22T03:51:31;100960.38;;;18.93;87.65
42125;BME280;27787;44.594;11.046;2022-10-22T03:54:15;100949.69;;;18.93;87.70
42125;BME280;27787;44.594;11.046;2022-10-22T03:56:59;100953.16;;;18.96;87.83
42125;BME280;27787;44.594;11.046;2022-10-22T03:59:43;100955.81;;;18.96;87.81
42125;BME280;27787;44.594;11.046;2022-10-22T04:02:27;100938.00;;;18.95;87.27
42125;BME280;27787;44.594;11.046;2022-10-22T04:05:11;100949.63;;;18.94;87.70
42125;BME280;27787;44.594;11.046;2022-10-22T04:07:55;100961.25;;;18.93;87.84
42125;BME280;27787;44.594;11.046;2022-10-22T04:10:39;100957.72;;;18.93;87.94
42125;BME280;27787;44.594;11.046;2022-10-22T04:13:23;100960.38;;;18.93;88.07
42125;BME280;27787;44.594;11.046;2022-10-22T04:18:52;100955.09;;;18.90;87.94
42125;BME280;27787;44.594;11.046;2022-10-22T04:21:36;100948.88;;;18.89;88.08
42125;BME280;27787;44.594;11.046;2022-10-22T04:24:20;100948.00;;;18.87;87.76
42125;BME280;27787;44.594;11.046;2022-10-22T04:27:03;100947.13;;;18.86;87.65
42125;BME280;27787;44.594;11.046;2022-10-22T04:29:47;100948.00;;;18.87;87.69
42125;BME280;27787;44.594;11.046;2022-10-22T04:32:31;100943.53;;;18.88;87.43
42125;BME280;27787;44.594;11.046;2022-10-22T04:35:15;100939.09;;;18.88;86.96
42125;BME280;27787;44.594;11.046;2022-10-22T04:37:59;100941.72;;;18.90;86.78
42125;BME280;27787;44.594;11.046;2022-10-22T04:40:43;100939.91;;;18.92;86.55
42125;BME280;27787;44.594;11.046;2022-10-22T04:43:27;100947.03;;;18.91;86.49
42125;BME280;27787;44.594;11.046;2022-10-22T04:46:11;100925.66;;;18.91;86.59
42125;BME280;27787;44.594;11.046;2022-10-22T04:48:55;100923.88;;;18.90;87.00
42125;BME280;27787;44.594;11.046;2022-10-22T04:51:39;100940.88;;;18.88;87.20
42125;BME280;27787;44.594;11.046;2022-10-22T04:54:23;100951.66;;;18.84;87.52
42125;BME280;27787;44.594;11.046;2022-10-22T04:57:07;100944.59;;;18.82;87.92
42125;BME280;27787;44.594;11.046;2022-10-22T04:59:51;100942.81;;;18.81;88.42
42125;BME280;27787;44.594;11.046;2022-10-22T05:02:35;100932.16;;;18.79;88.60
42125;BME280;27787;44.594;11.046;2022-10-22T05:05:19;100946.47;;;18.78;88.80
42125;BME280;27787;44.594;11.046;2022-10-22T05:08:03;100950.94;;;18.78;88.70
42125;BME280;27787;44.594;11.046;2022-10-22T05:10:47;100943.75;;;18.80;88.61
42125;BME280;27787;44.594;11.046;2022-10-22T05:13:31;100933.03;;;18.80;88.53
42125;BME280;27787;44.594;11.046;2022-10-22T05:16:15;100926.81;;;18.79;88.54
42125;BME280;27787;44.594;11.046;2022-10-22T05:18:59;100927.72;;;18.78;88.93
42125;BME280;27787;44.594;11.046;2022-10-22T05:21:43;100929.53;;;18.78;88.76
42125;BME280;27787;44.594;11.046;2022-10-22T05:24:28;100928.63;;;18.79;88.71
42125;BME280;27787;44.594;11.046;2022-10-22T05:27:12;100925.94;;;18.79;88.85
42125;BME280;27787;44.594;11.046;2022-10-22T05:29:56;100914.34;;;18.78;88.94
42125;BME280;27787;44.594;11.046;2022-10-22T05:32:40;100907.25;;;18.77;89.50
42125;BME280;27787;44.594;11.046;2022-10-22T05:35:24;100909.09;;;18.75;89.38
42125;BME280;27787;44.594;11.046;2022-10-22T05:38:08;100898.41;;;18.74;89.77
42125;BME280;27787;44.594;11.046;2022-10-22T05:40:59;100899.28;;;18.74;89.89
42125;BME280;27787;44.594;11.046;2022-10-22T05:43:43;100907.28;;;18.76;89.82
42125;BME280;27787;44.594;11.046;2022-10-22T05:46:28;100898.41;;;18.74;90.34
42125;BME280;27787;44.594;11.046;2022-10-22T05:49:13;100898.41;;;18.74;90.36
42125;BME280;27787;44.594;11.046;2022-10-22T05:51:58;100890.38;;;18.74;90.65
42125;BME280;27787;44.594;11.046;2022-10-22T05:54:42;100885.03;;;18.75;90.64
42125;BME280;27787;44.594;11.046;2022-10-22T05:57:26;100883.22;;;18.76;90.55
42125;BME280;27787;44.594;11.046;2022-10-22T06:00:11;100892.97;;;18.78;90.51
42125;BME280;27787;44.594;11.046;2022-10-22T06:02:55;100895.59;;;18.80;90.17
42125;BME280;27787;44.594;11.046;2022-10-22T06:05:40;100897.34;;;18.81;90.01
42125;BME280;27787;44.594;11.046;2022-10-22T06:08:23;100908.06;;;18.81;89.97
42125;BME280;27787;44.594;11.046;2022-10-22T06:11:08;100911.53;;;18.84;89.91
42125;BME280;27787;44.594;11.046;2022-10-22T06:13:52;100914.13;;;18.88;89.75
42125;BME280;27787;44.594;11.046;2022-10-22T06:16:35;100907.00;;;18.88;89.35
42125;BME280;27787;44.594;11.046;2022-10-22T06:19:20;100910.50;;;18.90;89.54
42125;BME280;27787;44.594;11.046;2022-10-22T06:22:04;100904.16;;;18.94;88.73
42125;BME280;27787;44.594;11.046;2022-10-22T06:24:48;100921.84;;;19.00;88.17
42125;BME280;27787;44.594;11.046;2022-10-22T06:27:32;100915.56;;;19.02;88.10
42125;BME280;27787;44.594;11.046;2022-10-22T06:30:16;100930.63;;;19.06;88.21
42125;BME280;27787;44.594;11.046;2022-10-22T06:33:00;100922.53;;;19.08;87.83
42125;BME280;27787;44.594;11.046;2022-10-22T06:35:44;100927.84;;;19.09;87.97
42125;BME280;27787;44.594;11.046;2022-10-22T06:38:28;100929.59;;;19.10;87.81
42125;BME280;27787;44.594;11.046;2022-10-22T06:43:56;100932.19;;;19.13;88.27
42125;BME280;27787;44.594;11.046;2022-10-22T06:46:40;100931.31;;;19.14;88.46
42125;BME280;27787;44.594;11.046;2022-10-22T06:49:25;100954.47;;;19.14;88.59
42125;BME280;27787;44.594;11.046;2022-10-22T06:52:09;100959.84;;;19.14;88.90
42125;BME280;27787;44.594;11.046;2022-10-22T06:54:53;100950.06;;;19.13;89.15
42125;BME280;27787;44.594;11.046;2022-10-22T06:57:37;100953.59;;;19.13;89.20
42125;BME280;27787;44.594;11.046;2022-10-22T07:00:21;100958.97;;;19.13;89.56
42125;BME280;27787;44.594;11.046;2022-10-22T07:03:06;100965.13;;;19.17;89.37
42125;BME280;27787;44.594;11.046;2022-10-22T07:05:51;100973.13;;;19.19;89.46
42125;BME280;27787;44.594;11.046;2022-10-22T07:08:36;100964.19;;;19.20;89.73
42125;BME280;27787;44.594;11.046;2022-10-22T07:11:24;100973.03;;;19.22;89.88
42125;BME280;27787;44.594;11.046;2022-10-22T07:14:10;100973.03;;;19.22;90.16
42125;BME280;27787;44.594;11.046;2022-10-22T07:16:54;100971.25;;;19.22;90.12
42125;BME280;27787;44.594;11.046;2022-10-22T07:19:38;100988.97;;;19.26;90.19
42125;BME280;27787;44.594;11.046;2022-10-22T07:22:22;100988.03;;;19.29;90.64
42125;BME280;27787;44.594;11.046;2022-10-22T07:25:06;100986.25;;;19.29;90.77
42125;BME280;27787;44.594;11.046;2022-10-22T07:27:51;100987.13;;;19.30;90.90
42125;BME280;27787;44.594;11.046;2022-10-22T07:30:36;100984.44;;;19.30;91.29
42125;BME280;27787;44.594;11.046;2022-10-22T07:33:20;100992.44;;;19.31;91.45
42125;BME280;27787;44.594;11.046;2022-10-22T07:36:07;100988.88;;;19.31;91.51
42125;BME280;27787;44.594;11.046;2022-10-22T07:38:55;100983.53;;;19.31;91.93
42125;BME280;27787;44.594;11.046;2022-10-22T07:41:40;100989.72;;;19.33;91.92
42125;BME280;27787;44.594;11.046;2022-10-22T07:44:24;100984.38;;;19.33;92.04
42125;BME280;27787;44.594;11.046;2022-10-22T07:47:08;100988.84;;;19.32;92.10
42125;BME280;27787;44.594;11.046;2022-10-22T07:49:53;100990.56;;;19.35;92.69
42125;BME280;27787;44.594;11.046;2022-10-22T07:52:37;100999.44;;;19.37;93.50
42125;BME280;27787;44.594;11.046;2022-10-22T07:55:20;100991.31;;;19.40;93.94
42125;BME280;27787;44.594;11.046;2022-10-22T07:58:04;100995.72;;;19.42;93.82
42125;BME280;27787;44.594;11.046;2022-10-22T08:00:49;101001.88;;;19.46;93.36
42125;BME280;27787;44.594;11.046;2022-10-22T08:03:34;101008.88;;;19.52;93.07
42125;BME280;27787;44.594;11.046;2022-10-22T08:06:18;100997.16;;;19.57;93.34
42125;BME280;27787;44.594;11.046;2022-10-22T08:09:03;101013.06;;;19.63;92.95
42125;BME280;27787;44.594;11.046;2022-10-22T08:11:47;101016.53;;;19.68;93.13
42125;BME280;27787;44.594;11.046;2022-10-22T08:14:31;101020.81;;;19.74;93.15
42125;BME280;27787;44.594;11.046;2022-10-22T08:17:15;101018.00;;;19.79;93.52
42125;BME280;27787;44.594;11.046;2022-10-22T08:20:00;101002.81;;;19.79;93.59
42125;BME280;27787;44.594;11.046;2022-10-22T08:22:44;100994.78;;;19.79;92.25
42125;BME280;27787;44.594;11.046;2022-10-22T08:25:29;100989.38;;;19.82;92.48
42125;BME280;27787;44.594;11.046;2022-10-22T08:28:13;100976.81;;;19.84;92.42
42125;BME280;27787;44.594;11.046;2022-10-22T08:30:57;100992.78;;;19.87;91.28
42125;BME280;27787;44.594;11.046;2022-10-22T08:33:41;101008.66;;;19.95;90.01
42125;BME280;27787;44.594;11.046;2022-10-22T08:36:26;101015.59;;;20.02;88.87
42125;BME280;27787;44.594;11.046;2022-10-22T08:39:10;101014.47;;;20.11;87.79
42125;BME280;27787;44.594;11.046;2022-10-22T08:45:23;101017.44;;;20.31;86.28
42125;BME280;27787;44.594;11.046;2022-10-22T08:51:04;101021.56;;;20.44;85.70
42125;BME280;27787;44.594;11.046;2022-10-22T09:00:04;101026.47;;;20.61;84.64
42125;BME280;27787;44.594;11.046;2022-10-22T09:06:18;101035.75;;;20.79;83.31
42125;BME280;27787;44.594;11.046;2022-10-22T09:09:11;101036.47;;;20.85;83.17
42125;BME280;27787;44.594;11.046;2022-10-22T09:11:59;101042.66;;;20.87;83.25
42125;BME280;27787;44.594;11.046;2022-10-22T09:14:44;101038.16;;;20.88;84.10
42125;BME280;27787;44.594;11.046;2022-10-22T09:17:37;101040.91;;;20.86;84.66
42125;BME280;27787;44.594;11.046;2022-10-22T09:20:26;101039.97;;;20.87;84.88
42125;BME280;27787;44.594;11.046;2022-10-22T09:23:31;101036.41;;;20.87;84.98
42125;BME280;27787;44.594;11.046;2022-10-22T09:26:17;101048.84;;;20.89;85.36
42125;BME280;27787;44.594;11.046;2022-10-22T09:29:03;101038.09;;;20.89;85.20
42125;BME280;27787;44.594;11.046;2022-10-22T09:31:47;101048.78;;;20.91;85.33
42125;BME280;27787;44.594;11.046;2022-10-22T09:34:32;101050.44;;;20.95;84.66
42125;BME280;27787;44.594;11.046;2022-10-22T09:37:18;101056.63;;;20.99;84.59
42125;BME280;27787;44.594;11.046;2022-10-22T09:40:06;101059.19;;;21.02;84.26
42125;BME280;27787;44.594;11.046;2022-10-22T09:42:57;101066.28;;;21.04;84.21
42125;BME280;27787;44.594;11.046;2022-10-22T09:45:42;101051.00;;;21.06;84.17
42125;BME280;27787;44.594;11.046;2022-10-22T09:48:38;101047.38;;;21.07;84.47
42125;BME280;27787;44.594;11.046;2022-10-22T09:54:24;101072.38;;;21.09;84.71
42125;BME280;27787;44.594;11.046;2022-10-22T09:59:53;101083.03;;;21.12;84.68
42125;BME280;27787;44.594;11.046;2022-10-22T10:02:39;101083.00;;;21.14;84.94
42125;BME280;27787;44.594;11.046;2022-10-22T10:05:30;101074.81;;;21.17;85.06
42125;BME280;27787;44.594;11.046;2022-10-22T10:08:16;101078.38;;;21.17;85.22
42125;BME280;27787;44.594;11.046;2022-10-22T10:11:25;101083.72;;;21.19;85.79
42125;BME280;27787;44.594;11.046;2022-10-22T10:14:18;101091.72;;;21.20;86.44
42125;BME280;27787;44.594;11.046;2022-10-22T10:20:30;101097.09;;;21.50;83.48
42125;BME280;27787;44.594;11.046;2022-10-22T10:23:32;101096.16;;;21.51;82.88
42125;BME280;27787;44.594;11.046;2022-10-22T10:41:06;101089.41;;;21.66;82.53
42125;BME280;27787;44.594;11.046;2022-10-22T10:46:58;101106.56;;;21.88;81.44
42125;BME280;27787;44.594;11.046;2022-10-22T10:49:48;101100.16;;;21.92;81.48
42125;BME280;27787;44.594;11.046;2022-10-22T10:53:16;101100.22;;;21.91;81.46
42125;BME280;27787;44.594;11.046;2022-10-22T10:59:23;101100.91;;;21.96;81.22
42125;BME280;27787;44.594;11.046;2022-10-22T11:05:31;101106.00;;;22.05;79.55
42125;BME280;27787;44.594;11.046;2022-10-22T11:08:27;101107.03;;;22.01;79.27
42125;BME280;27787;44.594;11.046;2022-10-22T11:11:19;101112.53;;;21.96;78.44
42125;BME280;27787;44.594;11.046;2022-10-22T11:14:14;101108.22;;;21.92;78.66
42125;BME280;27787;44.594;11.046;2022-10-22T11:17:19;101112.59;;;21.95;77.76
42125;BME280;27787;44.594;11.046;2022-10-22T11:20:23;101090.22;;;21.94;78.46
42125;BME280;27787;44.594;11.046;2022-10-22T11:23:13;101104.38;;;21.99;77.75
42125;BME280;27787;44.594;11.046;2022-10-22T11:25:59;101109.66;;;22.02;78.10
42125;BME280;27787;44.594;11.046;2022-10-22T11:28:47;101104.38;;;21.99;78.14
42125;BME280;27787;44.594;11.046;2022-10-22T11:31:34;101098.84;;;22.05;78.73
42125;BME280;27787;44.594;11.046;2022-10-22T11:34:40;101084.47;;;22.05;78.63
42125;BME280;27787;44.594;11.046;2022-10-22T11:37:30;101093.59;;;22.01;80.04
42125;BME280;27787;44.594;11.046;2022-10-22T11:40:22;101086.47;;;21.98;79.41
42125;BME280;27787;44.594;11.046;2022-10-22T11:47:08;101093.44;;;22.05;80.07
42125;BME280;27787;44.594;11.046;2022-10-22T11:49:58;101079.00;;;22.08;80.39
42125;BME280;27787;44.594;11.046;2022-10-22T11:53:05;101091.59;;;22.07;80.40
42125;BME280;27787;44.594;11.046;2022-10-22T11:56:21;101099.72;;;22.04;80.07
42125;BME280;27787;44.594;11.046;2022-10-22T11:59:32;101096.28;;;22.01;80.65
42125;BME280;27787;44.594;11.046;2022-10-22T12:08:20;101092.75;;;21.99;82.01
42125;BME280;27787;44.594;11.046;2022-10-22T12:14:13;101087.31;;;22.00;83.26
42125;BME280;27787;44.594;11.046;2022-10-22T12:17:19;101080.97;;;22.03;84.20
42125;BME280;27787;44.594;11.046;2022-10-22T12:20:11;101098.03;;;22.02;84.78
42125;BME280;27787;44.594;11.046;2022-10-22T12:22:57;101095.38;;;22.00;84.78
42125;BME280;27787;44.594;11.046;2022-10-22T12:25:42;101094.59;;;21.97;84.50
42125;BME280;27787;44.594;11.046;2022-10-22T12:28:27;101103.50;;;21.99;84.08
42125;BME280;27787;44.594;11.046;2022-10-22T12:31:15;101102.53;;;22.01;83.01
42125;BME280;27787;44.594;11.046;2022-10-22T12:33:59;101109.47;;;22.08;82.65
42125;BME280;27787;44.594;11.046;2022-10-22T12:36:46;101103.03;;;22.13;82.49
42125;BME280;27787;44.594;11.046;2022-10-22T12:39:30;101102.72;;;22.22;82.79
42125;BME280;27787;44.594;11.046;2022-10-22T12:42:17;101103.47;;;22.27;81.91
42125;BME280;27787;44.594;11.046;2022-10-22T12:45:02;101103.34;;;22.30;82.33
42125;BME280;27787;44.594;11.046;2022-10-22T12:47:55;101095.03;;;22.36;81.19
42125;BME280;27787;44.594;11.046;2022-10-22T12:50:41;101081.59;;;22.36;81.08
42125;BME280;27787;44.594;11.046;2022-10-22T12:53:29;101090.53;;;22.36;81.65
42125;BME280;27787;44.594;11.046;2022-10-22T12:56:20;101096.41;;;22.48;82.13
42125;BME280;27787;44.594;11.046;2022-10-22T13:02:22;101111.41;;;22.78;80.91
42125;BME280;27787;44.594;11.046;2022-10-22T13:08:03;101101.09;;;22.91;80.54
42125;BME280;27787;44.594;11.046;2022-10-22T13:10:50;101104.03;;;23.08;79.38
42125;BME280;27787;44.594;11.046;2022-10-22T13:16:24;101113.91;;;23.31;77.31
42125;BME280;27787;44.594;11.046;2022-10-22T13:19:48;101111.44;;;23.25;77.30
42125;BME280;27787;44.594;11.046;2022-10-22T13:22:36;101125.84;;;23.24;76.35
42125;BME280;27787;44.594;11.046;2022-10-22T13:25:29;101146.53;;;23.23;77.18
42125;BME280;27787;44.594;11.046;2022-10-22T13:31:00;101151.63;;;23.31;77.50
42125;BME280;27787;44.594;11.046;2022-10-22T13:33:53;101141.53;;;23.36;76.35
42125;BME280;27787;44.594;11.046;2022-10-22T13:36:38;101154.25;;;23.33;76.17
42125;BME280;27787;44.594;11.046;2022-10-22T13:39:23;101153.47;;;23.29;76.89
42125;BME280;27787;44.594;11.046;2022-10-22T13:42:11;101141.53;;;23.36;77.56
42125;BME280;27787;44.594;11.046;2022-10-22T13:44:56;101157.13;;;23.28;77.95
42125;BME280;27787;44.594;11.046;2022-10-22T13:47:41;101148.56;;;23.17;78.76
42125;BME280;27787;44.594;11.046;2022-10-22T13:50:27;101145.06;;;23.15;78.92
42125;BME280;27787;44.594;11.046;2022-10-22T13:53:15;101148.00;;;23.09;78.64
42125;BME280;27787;44.594;11.046;2022-10-22T13:56:00;101143.84;;;23.00;78.78
42125;BME280;27787;44.594;11.046;2022-10-22T13:58:45;101155.94;;;22.88;79.00
42125;BME280;27787;44.594;11.046;2022-10-22T14:01:30;101154.47;;;22.78;79.82
42125;BME280;27787;44.594;11.046;2022-10-22T14:04:14;101142.09;;;22.74;80.31
42125;BME280;27787;44.594;11.046;2022-10-22T14:07:00;101141.44;;;22.67;80.16
42125;BME280;27787;44.594;11.046;2022-10-22T14:09:44;101149.72;;;22.61;80.72
42125;BME280;27787;44.594;11.046;2022-10-22T14:12:28;101170.31;;;22.62;80.71
42125;BME280;27787;44.594;11.046;2022-10-22T14:15:14;101178.56;;;22.58;81.16
42125;BME280;27787;44.594;11.046;2022-10-22T14:18:00;101178.84;;;22.50;80.90
42125;BME280;27787;44.594;11.046;2022-10-22T14:20:44;101187.25;;;22.41;81.74
42125;BME280;27787;44.594;11.046;2022-10-22T14:23:29;101183.06;;;22.32;82.52
42125;BME280;27787;44.594;11.046;2022-10-22T14:26:25;101163.47;;;22.29;82.82
42125;BME280;27787;44.594;11.046;2022-10-22T14:29:11;101176.03;;;22.28;83.00
42125;BME280;27787;44.594;11.046;2022-10-22T14:31:55;101185.06;;;22.26;83.00
42125;BME280;27787;44.594;11.046;2022-10-22T14:34:39;101179.84;;;22.21;83.19
42125;BME280;27787;44.594;11.046;2022-10-22T14:37:24;101174.41;;;22.23;83.43
42125;BME280;27787;44.594;11.046;2022-10-22T14:40:12;101165.47;;;22.22;84.04
42125;BME280;27787;44.594;11.046;2022-10-22T14:42:57;101152.06;;;22.21;83.41
42125;BME280;27787;44.594;11.046;2022-10-22T14:45:41;101148.56;;;22.19;83.84
42125;BME280;27787;44.594;11.046;2022-10-22T14:48:25;101153.13;;;22.17;83.40
42125;BME280;27787;44.594;11.046;2022-10-22T14:51:15;101155.94;;;22.14;83.82
42125;BME280;27787;44.594;11.046;2022-10-22T14:54:00;101174.00;;;22.08;84.01
42125;BME280;27787;44.594;11.046;2022-10-22T14:56:44;101156.25;;;22.03;84.42
42125;BME280;27787;44.594;11.046;2022-10-22T14:59:28;101153.81;;;21.95;84.62
42125;BME280;27787;44.594;11.046;2022-10-22T15:02:13;101172.84;;;21.89;85.44
42125;BME280;27787;44.594;11.046;2022-10-22T15:04:57;101173.91;;;21.84;85.67
42125;BME280;27787;44.594;11.046;2022-10-22T15:07:42;101174.94;;;21.79;85.99
42125;BME280;27787;44.594;11.046;2022-10-22T15:10:26;101174.16;;;21.76;86.64
42125;BME280;27787;44.594;11.046;2022-10-22T15:13:10;101187.69;;;21.73;87.34
42125;BME280;27787;44.594;11.046;2022-10-22T15:15:55;101185.97;;;21.70;87.54
42125;BME280;27787;44.594;11.046;2022-10-22T15:18:41;101166.34;;;21.68;87.35
42125;BME280;27787;44.594;11.046;2022-10-22T15:21:25;101179.00;;;21.65;86.37
42125;BME280;27787;44.594;11.046;2022-10-22T15:24:09;101211.25;;;21.65;86.09
42125;BME280;27787;44.594;11.046;2022-10-22T15:26:53;101218.38;;;21.66;87.02
42125;BME280;27787;44.594;11.046;2022-10-22T15:29:39;101228.25;;;21.65;87.37
42125;BME280;27787;44.594;11.046;2022-10-22T15:32:24;101222.94;;;21.64;87.42
42125;BME280;27787;44.594;11.046;2022-10-22T15:35:09;101219.44;;;21.60;87.59
42125;BME280;27787;44.594;11.046;2022-10-22T15:37:53;101224.03;;;21.57;88.05
42125;BME280;27787;44.594;11.046;2022-10-22T15:40:38;101225.00;;;21.54;88.48
42125;BME280;27787;44.594;11.046;2022-10-22T15:43:22;101210.75;;;21.52;88.74
42125;BME280;27787;44.594;11.046;2022-10-22T15:46:15;101205.47;;;21.49;88.42
42125;BME280;27787;44.594;11.046;2022-10-22T15:49:00;101198.31;;;21.48;88.35
42125;BME280;27787;44.594;11.046;2022-10-22T15:51:44;101213.56;;;21.47;88.43
42125;BME280;27787;44.594;11.046;2022-10-22T15:54:29;101218.06;;;21.47;89.09
42125;BME280;27787;44.594;11.046;2022-10-22T15:57:14;101222.66;;;21.43;89.65